Brownsboro, Texas
Current Conditions -  °F | °C
As of 8:53 PM on Friday 21 Nov 2014 (Local Time) from KTYR Reporting Station
Light Rain Light Rain  
Wind Chill: 61°   Ceiling: 1200
Heat Index: 61°   Visibility: 10mi
Dew Point: 57°   Wind: 16mph
Humidity: 87%   Direction: 140°SE
Pressure: 30.14"   Gusts: NA
Location:  32.3°N, 95.61°W
Report Text: KTYR 220253Z 14014KT 10SM -RA BKN012 BKN025 OVC038 16/14 A3014 RMK AO2 RAB50 SLP202 P0000 60000 T01610139 51008
Loading
Personal Weather Stations






























Interactive Weather Map New forecast layout! Learn more

10-Day Weather Forecast

Advertisements
Track Severe Weather on mobile